sensor_id;sensor_type;location;lat;lon;timestamp;P1;durP1;ratioP1;P2;durP2;ratioP2
12210;SDS011;6168;42.658;23.298;2022-08-30T00:02:38;11.35;;;10.20;;
12210;SDS011;6168;42.658;23.298;2022-08-30T00:05:05;9.77;;;9.07;;
12210;SDS011;6168;42.658;23.298;2022-08-30T00:07:32;10.57;;;9.55;;
12210;SDS011;6168;42.658;23.298;2022-08-30T00:09:59;11.25;;;10.27;;
12210;SDS011;6168;42.658;23.298;2022-08-30T00:12:26;11.13;;;10.23;;
12210;SDS011;6168;42.658;23.298;2022-08-30T00:14:53;10.57;;;9.68;;
12210;SDS011;6168;42.658;23.298;2022-08-30T00:17:20;10.65;;;9.85;;
12210;SDS011;6168;42.658;23.298;2022-08-30T00:19:48;10.25;;;9.38;;
12210;SDS011;6168;42.658;23.298;2022-08-30T00:22:33;10.90;;;9.90;;
12210;SDS011;6168;42.658;23.298;2022-08-30T00:24:59;10.88;;;10.15;;
12210;SDS011;6168;42.658;23.298;2022-08-30T00:27:26;13.68;;;11.00;;
12210;SDS011;6168;42.658;23.298;2022-08-30T00:29:54;11.70;;;10.88;;
12210;SDS011;6168;42.658;23.298;2022-08-30T00:32:21;11.02;;;10.00;;
12210;SDS011;6168;42.658;23.298;2022-08-30T00:34:51;10.32;;;9.43;;
12210;SDS011;6168;42.658;23.298;2022-08-30T00:37:19;10.55;;;9.50;;
12210;SDS011;6168;42.658;23.298;2022-08-30T00:39:46;11.05;;;10.05;;
12210;SDS011;6168;42.658;23.298;2022-08-30T00:42:14;10.95;;;9.95;;
12210;SDS011;6168;42.658;23.298;2022-08-30T00:44:42;11.18;;;10.07;;
12210;SDS011;6168;42.658;23.298;2022-08-30T00:47:10;11.48;;;10.45;;
12210;SDS011;6168;42.658;23.298;2022-08-30T00:49:38;10.68;;;9.88;;
12210;SDS011;6168;42.658;23.298;2022-08-30T00:52:08;12.10;;;10.63;;
12210;SDS011;6168;42.658;23.298;2022-08-30T00:54:37;11.27;;;10.45;;
12210;SDS011;6168;42.658;23.298;2022-08-30T00:57:07;10.85;;;10.05;;
12210;SDS011;6168;42.658;23.298;2022-08-30T00:59:35;11.57;;;10.57;;
12210;SDS011;6168;42.658;23.298;2022-08-30T01:02:03;12.15;;;11.05;;
12210;SDS011;6168;42.658;23.298;2022-08-30T01:04:31;11.07;;;9.95;;
12210;SDS011;6168;42.658;23.298;2022-08-30T01:07:00;11.63;;;10.55;;
12210;SDS011;6168;42.658;23.298;2022-08-30T01:09:28;11.38;;;10.38;;
12210;SDS011;6168;42.658;23.298;2022-08-30T01:11:55;11.88;;;10.68;;
12210;SDS011;6168;42.658;23.298;2022-08-30T01:14:22;11.65;;;10.35;;
12210;SDS011;6168;42.658;23.298;2022-08-30T01:16:49;11.60;;;10.73;;
12210;SDS011;6168;42.658;23.298;2022-08-30T01:19:18;11.13;;;10.07;;
12210;SDS011;6168;42.658;23.298;2022-08-30T01:21:56;11.55;;;10.55;;
12210;SDS011;6168;42.658;23.298;2022-08-30T01:24:29;11.70;;;10.55;;
12210;SDS011;6168;42.658;23.298;2022-08-30T01:26:58;11.32;;;10.43;;
12210;SDS011;6168;42.658;23.298;2022-08-30T01:29:25;11.77;;;10.88;;
12210;SDS011;6168;42.658;23.298;2022-08-30T01:31:53;10.98;;;10.00;;
12210;SDS011;6168;42.658;23.298;2022-08-30T01:34:20;13.20;;;10.75;;
12210;SDS011;6168;42.658;23.298;2022-08-30T01:36:47;12.45;;;11.45;;
12210;SDS011;6168;42.658;23.298;2022-08-30T01:39:15;11.68;;;10.77;;
12210;SDS011;6168;42.658;23.298;2022-08-30T01:41:44;11.48;;;10.60;;
12210;SDS011;6168;42.658;23.298;2022-08-30T01:44:12;14.23;;;12.18;;
12210;SDS011;6168;42.658;23.298;2022-08-30T01:46:40;12.35;;;11.25;;
12210;SDS011;6168;42.658;23.298;2022-08-30T01:49:10;11.75;;;10.85;;
12210;SDS011;6168;42.658;23.298;2022-08-30T01:51:39;11.95;;;10.82;;
12210;SDS011;6168;42.658;23.298;2022-08-30T01:54:07;13.23;;;11.90;;
12210;SDS011;6168;42.658;23.298;2022-08-30T01:56:34;11.85;;;10.65;;
12210;SDS011;6168;42.658;23.298;2022-08-30T01:59:03;12.95;;;11.65;;
12210;SDS011;6168;42.658;23.298;2022-08-30T02:01:31;13.35;;;12.00;;
12210;SDS011;6168;42.658;23.298;2022-08-30T02:04:00;13.80;;;12.45;;
12210;SDS011;6168;42.658;23.298;2022-08-30T02:06:27;15.18;;;12.18;;
12210;SDS011;6168;42.658;23.298;2022-08-30T02:08:54;13.23;;;12.15;;
12210;SDS011;6168;42.658;23.298;2022-08-30T02:11:20;13.80;;;12.60;;
12210;SDS011;6168;42.658;23.298;2022-08-30T02:13:48;13.00;;;11.73;;
12210;SDS011;6168;42.658;23.298;2022-08-30T02:16:17;12.90;;;11.80;;
12210;SDS011;6168;42.658;23.298;2022-08-30T02:18:47;12.82;;;11.73;;
12210;SDS011;6168;42.658;23.298;2022-08-30T02:21:14;12.82;;;11.70;;
12210;SDS011;6168;42.658;23.298;2022-08-30T02:23:41;12.50;;;11.45;;
12210;SDS011;6168;42.658;23.298;2022-08-30T02:26:09;13.57;;;12.05;;
12210;SDS011;6168;42.658;23.298;2022-08-30T02:28:37;12.55;;;11.45;;
12210;SDS011;6168;42.658;23.298;2022-08-30T02:31:04;12.98;;;11.93;;
12210;SDS011;6168;42.658;23.298;2022-08-30T02:33:33;12.48;;;11.45;;
12210;SDS011;6168;42.658;23.298;2022-08-30T02:36:00;12.95;;;11.75;;
12210;SDS011;6168;42.658;23.298;2022-08-30T02:38:27;12.90;;;11.70;;
12210;SDS011;6168;42.658;23.298;2022-08-30T02:40:54;13.10;;;11.80;;
12210;SDS011;6168;42.658;23.298;2022-08-30T02:43:21;13.02;;;11.82;;
12210;SDS011;6168;42.658;23.298;2022-08-30T02:45:49;12.15;;;11.15;;
12210;SDS011;6168;42.658;23.298;2022-08-30T02:48:16;13.85;;;12.65;;
12210;SDS011;6168;42.658;23.298;2022-08-30T02:50:45;12.90;;;11.93;;
12210;SDS011;6168;42.658;23.298;2022-08-30T02:53:13;14.02;;;11.73;;
12210;SDS011;6168;42.658;23.298;2022-08-30T02:55:40;13.57;;;12.30;;
12210;SDS011;6168;42.658;23.298;2022-08-30T02:58:07;13.55;;;12.25;;
12210;SDS011;6168;42.658;23.298;2022-08-30T03:00:34;12.57;;;11.38;;
12210;SDS011;6168;42.658;23.298;2022-08-30T03:03:01;15.98;;;12.43;;
12210;SDS011;6168;42.658;23.298;2022-08-30T03:05:29;13.85;;;12.63;;
12210;SDS011;6168;42.658;23.298;2022-08-30T03:07:58;14.30;;;12.38;;
12210;SDS011;6168;42.658;23.298;2022-08-30T03:10:26;12.35;;;11.18;;
12210;SDS011;6168;42.658;23.298;2022-08-30T03:12:54;13.15;;;11.85;;
12210;SDS011;6168;42.658;23.298;2022-08-30T03:15:21;13.05;;;11.85;;
12210;SDS011;6168;42.658;23.298;2022-08-30T03:17:49;13.07;;;11.80;;
12210;SDS011;6168;42.658;23.298;2022-08-30T03:20:17;13.40;;;12.02;;
12210;SDS011;6168;42.658;23.298;2022-08-30T03:22:44;13.35;;;12.25;;
12210;SDS011;6168;42.658;23.298;2022-08-30T03:25:12;14.20;;;11.65;;
12210;SDS011;6168;42.658;23.298;2022-08-30T03:27:40;13.48;;;12.18;;
12210;SDS011;6168;42.658;23.298;2022-08-30T03:30:07;13.23;;;11.30;;
12210;SDS011;6168;42.658;23.298;2022-08-30T03:32:36;13.60;;;12.15;;
12210;SDS011;6168;42.658;23.298;2022-08-30T03:35:03;13.10;;;11.63;;
12210;SDS011;6168;42.658;23.298;2022-08-30T03:37:31;13.50;;;11.90;;
12210;SDS011;6168;42.658;23.298;2022-08-30T03:39:58;12.98;;;11.85;;
12210;SDS011;6168;42.658;23.298;2022-08-30T03:42:28;14.18;;;12.52;;
12210;SDS011;6168;42.658;23.298;2022-08-30T03:44:55;15.57;;;12.43;;
12210;SDS011;6168;42.658;23.298;2022-08-30T03:47:22;13.75;;;12.38;;
12210;SDS011;6168;42.658;23.298;2022-08-30T03:49:48;12.55;;;11.25;;
12210;SDS011;6168;42.658;23.298;2022-08-30T03:52:15;15.13;;;12.68;;
12210;SDS011;6168;42.658;23.298;2022-08-30T03:54:42;14.40;;;12.95;;
12210;SDS011;6168;42.658;23.298;2022-08-30T03:57:09;13.13;;;11.98;;
12210;SDS011;6168;42.658;23.298;2022-08-30T03:59:37;13.60;;;12.40;;
12210;SDS011;6168;42.658;23.298;2022-08-30T04:02:04;14.43;;;13.23;;
12210;SDS011;6168;42.658;23.298;2022-08-30T04:04:31;14.13;;;12.88;;
12210;SDS011;6168;42.658;23.298;2022-08-30T04:06:58;14.48;;;12.45;;
12210;SDS011;6168;42.658;23.298;2022-08-30T04:09:25;14.98;;;13.35;;
12210;SDS011;6168;42.658;23.298;2022-08-30T04:11:52;14.98;;;13.13;;
12210;SDS011;6168;42.658;23.298;2022-08-30T04:14:19;20.50;;;14.98;;
12210;SDS011;6168;42.658;23.298;2022-08-30T04:16:48;14.27;;;12.93;;
12210;SDS011;6168;42.658;23.298;2022-08-30T04:19:15;14.38;;;13.13;;
12210;SDS011;6168;42.658;23.298;2022-08-30T04:21:43;15.95;;;14.10;;
12210;SDS011;6168;42.658;23.298;2022-08-30T04:24:10;14.80;;;13.38;;
12210;SDS011;6168;42.658;23.298;2022-08-30T04:26:37;14.23;;;13.00;;
12210;SDS011;6168;42.658;23.298;2022-08-30T04:29:04;15.80;;;14.30;;
12210;SDS011;6168;42.658;23.298;2022-08-30T04:31:31;13.52;;;12.32;;
12210;SDS011;6168;42.658;23.298;2022-08-30T04:34:00;18.08;;;14.40;;
12210;SDS011;6168;42.658;23.298;2022-08-30T04:36:26;15.60;;;14.23;;
12210;SDS011;6168;42.658;23.298;2022-08-30T04:38:53;14.48;;;13.10;;
12210;SDS011;6168;42.658;23.298;2022-08-30T04:41:20;15.10;;;13.85;;
12210;SDS011;6168;42.658;23.298;2022-08-30T04:43:48;15.75;;;14.07;;
12210;SDS011;6168;42.658;23.298;2022-08-30T04:46:15;18.00;;;13.95;;
12210;SDS011;6168;42.658;23.298;2022-08-30T04:48:43;17.48;;;13.32;;
12210;SDS011;6168;42.658;23.298;2022-08-30T04:51:13;14.77;;;13.38;;
12210;SDS011;6168;42.658;23.298;2022-08-30T04:53:42;17.33;;;13.10;;
12210;SDS011;6168;42.658;23.298;2022-08-30T04:56:11;14.77;;;13.50;;
12210;SDS011;6168;42.658;23.298;2022-08-30T04:58:40;15.73;;;13.48;;
12210;SDS011;6168;42.658;23.298;2022-08-30T05:01:10;20.00;;;14.18;;
12210;SDS011;6168;42.658;23.298;2022-08-30T05:03:38;18.33;;;15.45;;
12210;SDS011;6168;42.658;23.298;2022-08-30T05:06:05;17.50;;;15.43;;
12210;SDS011;6168;42.658;23.298;2022-08-30T05:08:34;19.20;;;14.52;;
12210;SDS011;6168;42.658;23.298;2022-08-30T05:11:02;20.42;;;18.05;;
12210;SDS011;6168;42.658;23.298;2022-08-30T05:13:31;21.38;;;18.77;;
12210;SDS011;6168;42.658;23.298;2022-08-30T05:15:58;20.80;;;17.88;;
12210;SDS011;6168;42.658;23.298;2022-08-30T05:18:26;17.48;;;15.55;;
12210;SDS011;6168;42.658;23.298;2022-08-30T05:21:01;18.27;;;16.38;;
12210;SDS011;6168;42.658;23.298;2022-08-30T05:23:29;17.63;;;15.38;;
12210;SDS011;6168;42.658;23.298;2022-08-30T05:25:57;17.98;;;15.55;;
12210;SDS011;6168;42.658;23.298;2022-08-30T05:28:24;17.00;;;14.35;;
12210;SDS011;6168;42.658;23.298;2022-08-30T05:30:51;18.48;;;14.35;;
12210;SDS011;6168;42.658;23.298;2022-08-30T05:33:18;17.73;;;16.00;;
12210;SDS011;6168;42.658;23.298;2022-08-30T05:35:45;20.83;;;18.67;;
12210;SDS011;6168;42.658;23.298;2022-08-30T05:38:12;18.30;;;16.30;;
12210;SDS011;6168;42.658;23.298;2022-08-30T05:40:39;17.98;;;15.95;;
12210;SDS011;6168;42.658;23.298;2022-08-30T05:43:08;18.40;;;14.98;;
12210;SDS011;6168;42.658;23.298;2022-08-30T05:45:35;21.15;;;15.30;;
12210;SDS011;6168;42.658;23.298;2022-08-30T05:48:03;16.48;;;14.93;;
12210;SDS011;6168;42.658;23.298;2022-08-30T05:50:30;19.05;;;16.98;;
12210;SDS011;6168;42.658;23.298;2022-08-30T05:52:57;17.83;;;16.20;;
12210;SDS011;6168;42.658;23.298;2022-08-30T05:55:24;18.33;;;15.73;;
12210;SDS011;6168;42.658;23.298;2022-08-30T05:57:50;19.48;;;15.63;;
12210;SDS011;6168;42.658;23.298;2022-08-30T06:00:20;15.43;;;14.02;;
12210;SDS011;6168;42.658;23.298;2022-08-30T06:02:47;17.80;;;16.15;;
12210;SDS011;6168;42.658;23.298;2022-08-30T06:05:19;18.40;;;16.52;;
12210;SDS011;6168;42.658;23.298;2022-08-30T06:07:46;18.35;;;16.55;;
12210;SDS011;6168;42.658;23.298;2022-08-30T06:10:13;17.98;;;16.23;;
12210;SDS011;6168;42.658;23.298;2022-08-30T06:12:40;18.55;;;16.60;;
12210;SDS011;6168;42.658;23.298;2022-08-30T06:15:07;18.02;;;15.18;;
12210;SDS011;6168;42.658;23.298;2022-08-30T06:17:36;20.38;;;16.20;;
12210;SDS011;6168;42.658;23.298;2022-08-30T06:20:04;21.98;;;18.23;;
12210;SDS011;6168;42.658;23.298;2022-08-30T06:22:32;18.90;;;17.20;;
12210;SDS011;6168;42.658;23.298;2022-08-30T06:24:59;18.75;;;16.73;;
12210;SDS011;6168;42.658;23.298;2022-08-30T06:27:26;18.67;;;16.08;;
12210;SDS011;6168;42.658;23.298;2022-08-30T06:29:52;16.45;;;14.93;;
12210;SDS011;6168;42.658;23.298;2022-08-30T06:32:20;16.35;;;14.95;;
12210;SDS011;6168;42.658;23.298;2022-08-30T06:34:49;16.33;;;14.82;;
12210;SDS011;6168;42.658;23.298;2022-08-30T06:37:15;15.75;;;14.23;;
12210;SDS011;6168;42.658;23.298;2022-08-30T06:39:42;17.92;;;14.93;;
12210;SDS011;6168;42.658;23.298;2022-08-30T06:42:09;16.95;;;14.93;;
12210;SDS011;6168;42.658;23.298;2022-08-30T06:44:36;16.02;;;14.52;;
12210;SDS011;6168;42.658;23.298;2022-08-30T06:47:03;17.33;;;15.48;;
12210;SDS011;6168;42.658;23.298;2022-08-30T06:49:30;15.88;;;14.23;;
12210;SDS011;6168;42.658;23.298;2022-08-30T06:51:58;16.00;;;14.43;;
12210;SDS011;6168;42.658;23.298;2022-08-30T06:54:25;15.88;;;14.43;;
12210;SDS011;6168;42.658;23.298;2022-08-30T06:56:52;15.60;;;14.15;;
12210;SDS011;6168;42.658;23.298;2022-08-30T06:59:19;16.60;;;14.90;;
12210;SDS011;6168;42.658;23.298;2022-08-30T07:01:46;14.35;;;12.95;;
12210;SDS011;6168;42.658;23.298;2022-08-30T07:04:13;16.80;;;14.23;;
12210;SDS011;6168;42.658;23.298;2022-08-30T07:06:40;16.30;;;14.55;;
12210;SDS011;6168;42.658;23.298;2022-08-30T07:09:09;15.80;;;14.60;;
12210;SDS011;6168;42.658;23.298;2022-08-30T07:11:36;16.80;;;14.85;;
12210;SDS011;6168;42.658;23.298;2022-08-30T07:14:03;29.35;;;17.08;;
12210;SDS011;6168;42.658;23.298;2022-08-30T07:16:30;14.65;;;13.18;;
12210;SDS011;6168;42.658;23.298;2022-08-30T07:18:57;14.70;;;13.30;;
12210;SDS011;6168;42.658;23.298;2022-08-30T07:21:25;15.45;;;13.95;;
12210;SDS011;6168;42.658;23.298;2022-08-30T07:23:53;16.48;;;14.82;;
12210;SDS011;6168;42.658;23.298;2022-08-30T07:26:24;14.23;;;12.82;;
12210;SDS011;6168;42.658;23.298;2022-08-30T07:28:53;15.05;;;13.57;;
12210;SDS011;6168;42.658;23.298;2022-08-30T07:31:20;16.10;;;14.48;;
12210;SDS011;6168;42.658;23.298;2022-08-30T07:33:47;14.88;;;13.52;;
12210;SDS011;6168;42.658;23.298;2022-08-30T07:36:14;15.48;;;14.00;;
12210;SDS011;6168;42.658;23.298;2022-08-30T07:38:42;16.35;;;14.85;;
12210;SDS011;6168;42.658;23.298;2022-08-30T07:41:14;17.20;;;15.50;;
12210;SDS011;6168;42.658;23.298;2022-08-30T07:43:45;15.65;;;14.32;;
12210;SDS011;6168;42.658;23.298;2022-08-30T07:46:12;17.73;;;14.73;;
12210;SDS011;6168;42.658;23.298;2022-08-30T07:48:39;76.65;;;22.33;;
12210;SDS011;6168;42.658;23.298;2022-08-30T07:51:08;14.30;;;13.07;;
12210;SDS011;6168;42.658;23.298;2022-08-30T07:53:36;13.70;;;12.50;;
12210;SDS011;6168;42.658;23.298;2022-08-30T07:56:03;16.02;;;13.90;;
12210;SDS011;6168;42.658;23.298;2022-08-30T07:58:31;16.38;;;14.55;;
12210;SDS011;6168;42.658;23.298;2022-08-30T08:00:59;14.13;;;13.13;;
12210;SDS011;6168;42.658;23.298;2022-08-30T08:03:26;14.10;;;12.70;;
12210;SDS011;6168;42.658;23.298;2022-08-30T08:05:54;17.20;;;14.00;;
12210;SDS011;6168;42.658;23.298;2022-08-30T08:08:22;12.65;;;11.50;;
12210;SDS011;6168;42.658;23.298;2022-08-30T08:10:49;14.55;;;13.07;;
12210;SDS011;6168;42.658;23.298;2022-08-30T08:13:16;13.35;;;12.20;;
12210;SDS011;6168;42.658;23.298;2022-08-30T08:15:43;14.65;;;12.68;;
12210;SDS011;6168;42.658;23.298;2022-08-30T08:18:11;14.38;;;12.98;;
12210;SDS011;6168;42.658;23.298;2022-08-30T08:20:38;14.80;;;13.45;;
12210;SDS011;6168;42.658;23.298;2022-08-30T08:23:05;21.10;;;14.38;;
12210;SDS011;6168;42.658;23.298;2022-08-30T08:25:33;27.73;;;15.05;;
12210;SDS011;6168;42.658;23.298;2022-08-30T08:28:04;14.63;;;13.20;;
12210;SDS011;6168;42.658;23.298;2022-08-30T08:30:32;15.75;;;13.30;;
12210;SDS011;6168;42.658;23.298;2022-08-30T08:33:01;14.50;;;12.55;;
12210;SDS011;6168;42.658;23.298;2022-08-30T08:35:30;14.10;;;12.65;;
12210;SDS011;6168;42.658;23.298;2022-08-30T08:37:57;13.60;;;12.43;;
12210;SDS011;6168;42.658;23.298;2022-08-30T08:40:24;13.77;;;10.73;;
12210;SDS011;6168;42.658;23.298;2022-08-30T08:43:02;13.95;;;11.75;;
12210;SDS011;6168;42.658;23.298;2022-08-30T08:45:39;12.45;;;11.30;;
12210;SDS011;6168;42.658;23.298;2022-08-30T08:48:15;21.92;;;13.95;;
12210;SDS011;6168;42.658;23.298;2022-08-30T08:50:51;12.57;;;11.38;;
12210;SDS011;6168;42.658;23.298;2022-08-30T08:53:35;14.20;;;12.63;;
12210;SDS011;6168;42.658;23.298;2022-08-30T08:56:03;13.45;;;12.15;;
12210;SDS011;6168;42.658;23.298;2022-08-30T08:58:35;13.50;;;12.48;;
12210;SDS011;6168;42.658;23.298;2022-08-30T09:01:08;12.57;;;11.68;;
12210;SDS011;6168;42.658;23.298;2022-08-30T09:03:36;13.60;;;12.50;;
12210;SDS011;6168;42.658;23.298;2022-08-30T09:06:08;12.77;;;11.63;;
12210;SDS011;6168;42.658;23.298;2022-08-30T09:08:49;11.85;;;10.68;;
12210;SDS011;6168;42.658;23.298;2022-08-30T09:11:19;12.77;;;11.52;;
12210;SDS011;6168;42.658;23.298;2022-08-30T09:13:48;14.77;;;13.38;;
12210;SDS011;6168;42.658;23.298;2022-08-30T09:19:26;14.82;;;13.40;;
12210;SDS011;6168;42.658;23.298;2022-08-30T09:21:56;15.25;;;13.82;;
12210;SDS011;6168;42.658;23.298;2022-08-30T09:24:24;15.20;;;13.80;;
12210;SDS011;6168;42.658;23.298;2022-08-30T09:26:51;15.93;;;13.90;;
12210;SDS011;6168;42.658;23.298;2022-08-30T09:29:18;18.02;;;14.63;;
12210;SDS011;6168;42.658;23.298;2022-08-30T09:31:48;17.67;;;15.85;;
12210;SDS011;6168;42.658;23.298;2022-08-30T09:34:19;17.95;;;16.08;;
12210;SDS011;6168;42.658;23.298;2022-08-30T09:36:48;15.70;;;14.23;;
12210;SDS011;6168;42.658;23.298;2022-08-30T09:39:18;17.50;;;15.63;;
12210;SDS011;6168;42.658;23.298;2022-08-30T09:41:52;18.08;;;15.65;;
12210;SDS011;6168;42.658;23.298;2022-08-30T09:44:20;16.33;;;14.73;;
12210;SDS011;6168;42.658;23.298;2022-08-30T09:46:52;17.52;;;15.80;;
12210;SDS011;6168;42.658;23.298;2022-08-30T09:49:32;16.25;;;14.68;;
12210;SDS011;6168;42.658;23.298;2022-08-30T09:52:12;17.38;;;15.88;;
12210;SDS011;6168;42.658;23.298;2022-08-30T09:55:03;15.05;;;12.77;;
12210;SDS011;6168;42.658;23.298;2022-08-30T09:57:43;16.50;;;14.80;;
12210;SDS011;6168;42.658;23.298;2022-08-30T10:00:17;18.08;;;16.27;;
12210;SDS011;6168;42.658;23.298;2022-08-30T10:02:52;17.45;;;15.60;;
12210;SDS011;6168;42.658;23.298;2022-08-30T10:05:26;16.92;;;15.32;;
12210;SDS011;6168;42.658;23.298;2022-08-30T10:08:03;17.05;;;15.20;;
12210;SDS011;6168;42.658;23.298;2022-08-30T10:10:42;15.25;;;13.63;;
12210;SDS011;6168;42.658;23.298;2022-08-30T10:16:24;14.10;;;12.93;;
12210;SDS011;6168;42.658;23.298;2022-08-30T10:19:02;12.25;;;10.80;;
12210;SDS011;6168;42.658;23.298;2022-08-30T10:21:40;13.27;;;10.93;;
12210;SDS011;6168;42.658;23.298;2022-08-30T10:24:12;12.43;;;11.20;;
12210;SDS011;6168;42.658;23.298;2022-08-30T10:26:46;12.40;;;11.18;;
12210;SDS011;6168;42.658;23.298;2022-08-30T10:29:18;10.70;;;9.65;;
12210;SDS011;6168;42.658;23.298;2022-08-30T10:31:51;14.05;;;11.15;;
12210;SDS011;6168;42.658;23.298;2022-08-30T10:34:23;15.30;;;13.73;;
12210;SDS011;6168;42.658;23.298;2022-08-30T10:36:55;13.70;;;12.35;;
12210;SDS011;6168;42.658;23.298;2022-08-30T10:39:27;23.40;;;13.50;;
12210;SDS011;6168;42.658;23.298;2022-08-30T10:42:02;14.57;;;12.20;;
12210;SDS011;6168;42.658;23.298;2022-08-30T10:44:33;17.10;;;12.82;;
12210;SDS011;6168;42.658;23.298;2022-08-30T10:47:07;16.52;;;13.38;;
12210;SDS011;6168;42.658;23.298;2022-08-30T10:49:43;16.60;;;13.40;;
12210;SDS011;6168;42.658;23.298;2022-08-30T10:52:18;16.35;;;12.43;;
12210;SDS011;6168;42.658;23.298;2022-08-30T10:54:53;20.38;;;12.80;;
12210;SDS011;6168;42.658;23.298;2022-08-30T10:57:25;16.92;;;13.55;;
12210;SDS011;6168;42.658;23.298;2022-08-30T10:59:53;13.38;;;11.85;;
12210;SDS011;6168;42.658;23.298;2022-08-30T11:02:50;13.88;;;12.50;;
12210;SDS011;6168;42.658;23.298;2022-08-30T11:06:05;14.63;;;11.25;;
12210;SDS011;6168;42.658;23.298;2022-08-30T11:08:45;16.67;;;14.00;;
12210;SDS011;6168;42.658;23.298;2022-08-30T11:11:27;12.35;;;11.15;;
12210;SDS011;6168;42.658;23.298;2022-08-30T11:14:04;12.02;;;10.75;;
12210;SDS011;6168;42.658;23.298;2022-08-30T11:16:36;17.25;;;11.57;;
12210;SDS011;6168;42.658;23.298;2022-08-30T11:19:12;13.82;;;11.27;;
12210;SDS011;6168;42.658;23.298;2022-08-30T11:21:42;13.00;;;9.65;;
12210;SDS011;6168;42.658;23.298;2022-08-30T11:24:11;15.05;;;10.60;;
12210;SDS011;6168;42.658;23.298;2022-08-30T11:26:54;13.93;;;10.57;;
12210;SDS011;6168;42.658;23.298;2022-08-30T11:29:29;14.55;;;11.07;;
12210;SDS011;6168;42.658;23.298;2022-08-30T11:31:59;13.73;;;10.20;;
12210;SDS011;6168;42.658;23.298;2022-08-30T11:34:56;17.40;;;11.52;;
12210;SDS011;6168;42.658;23.298;2022-08-30T11:37:35;13.40;;;10.02;;
12210;SDS011;6168;42.658;23.298;2022-08-30T11:40:06;15.23;;;10.13;;
12210;SDS011;6168;42.658;23.298;2022-08-30T11:42:36;13.85;;;11.65;;
12210;SDS011;6168;42.658;23.298;2022-08-30T11:54:21;12.88;;;10.68;;
12210;SDS011;6168;42.658;23.298;2022-08-30T11:56:58;12.68;;;9.82;;
12210;SDS011;6168;42.658;23.298;2022-08-30T11:59:35;11.48;;;9.23;;
12210;SDS011;6168;42.658;23.298;2022-08-30T12:05:08;12.95;;;10.50;;
12210;SDS011;6168;42.658;23.298;2022-08-30T12:11:07;10.20;;;7.97;;
12210;SDS011;6168;42.658;23.298;2022-08-30T12:17:09;12.65;;;7.90;;
12210;SDS011;6168;42.658;23.298;2022-08-30T12:19:56;9.35;;;8.50;;
12210;SDS011;6168;42.658;23.298;2022-08-30T12:22:24;9.48;;;8.52;;
12210;SDS011;6168;42.658;23.298;2022-08-30T12:24:51;15.63;;;7.85;;
12210;SDS011;6168;42.658;23.298;2022-08-30T12:27:21;8.93;;;7.65;;
12210;SDS011;6168;42.658;23.298;2022-08-30T12:29:51;8.85;;;7.20;;
12210;SDS011;6168;42.658;23.298;2022-08-30T12:32:19;8.60;;;7.78;;
12210;SDS011;6168;42.658;23.298;2022-08-30T12:34:49;8.30;;;7.07;;
12210;SDS011;6168;42.658;23.298;2022-08-30T12:37:19;11.48;;;8.50;;
12210;SDS011;6168;42.658;23.298;2022-08-30T12:39:58;9.82;;;8.05;;
12210;SDS011;6168;42.658;23.298;2022-08-30T12:42:27;8.55;;;7.85;;
12210;SDS011;6168;42.658;23.298;2022-08-30T12:44:58;8.27;;;7.13;;
12210;SDS011;6168;42.658;23.298;2022-08-30T12:47:30;10.65;;;7.43;;
12210;SDS011;6168;42.658;23.298;2022-08-30T12:50:04;14.70;;;7.47;;
12210;SDS011;6168;42.658;23.298;2022-08-30T12:52:33;8.40;;;7.60;;
12210;SDS011;6168;42.658;23.298;2022-08-30T12:55:06;9.30;;;7.57;;
12210;SDS011;6168;42.658;23.298;2022-08-30T12:57:39;7.22;;;6.63;;
12210;SDS011;6168;42.658;23.298;2022-08-30T13:00:09;8.75;;;7.75;;
12210;SDS011;6168;42.658;23.298;2022-08-30T13:02:42;8.18;;;7.47;;
12210;SDS011;6168;42.658;23.298;2022-08-30T13:05:28;10.75;;;7.35;;
12210;SDS011;6168;42.658;23.298;2022-08-30T13:08:13;9.60;;;7.97;;
12210;SDS011;6168;42.658;23.298;2022-08-30T13:10:49;11.57;;;7.55;;
12210;SDS011;6168;42.658;23.298;2022-08-30T13:13:27;8.65;;;7.82;;
12210;SDS011;6168;42.658;23.298;2022-08-30T13:16:06;9.25;;;8.43;;
12210;SDS011;6168;42.658;23.298;2022-08-30T13:18:35;8.77;;;7.88;;
12210;SDS011;6168;42.658;23.298;2022-08-30T13:21:09;9.32;;;8.43;;
12210;SDS011;6168;42.658;23.298;2022-08-30T13:23:58;11.40;;;8.82;;
12210;SDS011;6168;42.658;23.298;2022-08-30T13:26:26;9.98;;;8.65;;
12210;SDS011;6168;42.658;23.298;2022-08-30T13:28:55;10.02;;;8.98;;
12210;SDS011;6168;42.658;23.298;2022-08-30T13:31:25;12.98;;;9.57;;
12210;SDS011;6168;42.658;23.298;2022-08-30T13:33:54;10.40;;;9.38;;
12210;SDS011;6168;42.658;23.298;2022-08-30T13:36:22;10.80;;;9.57;;
12210;SDS011;6168;42.658;23.298;2022-08-30T13:38:53;10.18;;;9.07;;
12210;SDS011;6168;42.658;23.298;2022-08-30T13:41:21;11.82;;;9.68;;
12210;SDS011;6168;42.658;23.298;2022-08-30T13:43:48;9.52;;;8.05;;
12210;SDS011;6168;42.658;23.298;2022-08-30T13:46:15;10.65;;;9.63;;
12210;SDS011;6168;42.658;23.298;2022-08-30T13:48:45;12.65;;;8.90;;
12210;SDS011;6168;42.658;23.298;2022-08-30T13:51:12;17.00;;;10.27;;
12210;SDS011;6168;42.658;23.298;2022-08-30T13:53:39;13.35;;;10.15;;
12210;SDS011;6168;42.658;23.298;2022-08-30T13:56:06;12.98;;;8.95;;
12210;SDS011;6168;42.658;23.298;2022-08-30T13:58:33;12.13;;;9.32;;
12210;SDS011;6168;42.658;23.298;2022-08-30T14:01:00;10.15;;;9.05;;
12210;SDS011;6168;42.658;23.298;2022-08-30T14:03:26;12.68;;;8.80;;
12210;SDS011;6168;42.658;23.298;2022-08-30T14:05:55;11.15;;;9.13;;
12210;SDS011;6168;42.658;23.298;2022-08-30T14:08:25;10.45;;;9.15;;
12210;SDS011;6168;42.658;23.298;2022-08-30T14:10:53;10.65;;;8.90;;
12210;SDS011;6168;42.658;23.298;2022-08-30T14:13:20;10.90;;;9.60;;
12210;SDS011;6168;42.658;23.298;2022-08-30T14:15:48;11.55;;;9.63;;
12210;SDS011;6168;42.658;23.298;2022-08-30T14:18:15;11.13;;;8.60;;
12210;SDS011;6168;42.658;23.298;2022-08-30T14:20:43;10.68;;;9.68;;
12210;SDS011;6168;42.658;23.298;2022-08-30T14:23:11;10.90;;;9.82;;
12210;SDS011;6168;42.658;23.298;2022-08-30T14:25:38;9.48;;;8.77;;
12210;SDS011;6168;42.658;23.298;2022-08-30T14:28:05;9.95;;;9.07;;
12210;SDS011;6168;42.658;23.298;2022-08-30T14:30:32;12.15;;;9.88;;
12210;SDS011;6168;42.658;23.298;2022-08-30T14:32:59;11.02;;;9.60;;
12210;SDS011;6168;42.658;23.298;2022-08-30T14:35:25;10.80;;;9.77;;
12210;SDS011;6168;42.658;23.298;2022-08-30T14:37:53;12.80;;;10.25;;
12210;SDS011;6168;42.658;23.298;2022-08-30T14:40:21;13.32;;;8.93;;
12210;SDS011;6168;42.658;23.298;2022-08-30T14:42:48;14.50;;;9.65;;
12210;SDS011;6168;42.658;23.298;2022-08-30T14:45:15;13.50;;;9.93;;
12210;SDS011;6168;42.658;23.298;2022-08-30T14:47:43;11.25;;;10.20;;
12210;SDS011;6168;42.658;23.298;2022-08-30T14:50:10;10.20;;;9.10;;
12210;SDS011;6168;42.658;23.298;2022-08-30T14:52:38;11.18;;;9.93;;
12210;SDS011;6168;42.658;23.298;2022-08-30T14:55:06;11.07;;;9.93;;
12210;SDS011;6168;42.658;23.298;2022-08-30T14:57:35;12.38;;;10.15;;
12210;SDS011;6168;42.658;23.298;2022-08-30T15:00:03;15.02;;;10.57;;
12210;SDS011;6168;42.658;23.298;2022-08-30T15:02:31;12.02;;;9.20;;
12210;SDS011;6168;42.658;23.298;2022-08-30T15:04:58;12.80;;;11.50;;
12210;SDS011;6168;42.658;23.298;2022-08-30T15:07:25;10.40;;;9.38;;